^^
Saratoga-Weather Station Historical Data
Daily Summary for September 29, 2021 Units:  Both    English   Metric
Daily Weekly Monthly Yearly Custom
  High: Low: Average:
Temperature: 60.4 °F /  15.8 °C 45.9 °F /  7.7 °C 52.3 °F /  11.3 °C
Dew Point: 54.5 °F /  12.5 °C 43.3 °F /  6.3 °C 47.8 °F /  8.8 °C
Humidity: 97% 58% 86%
Wind Speed: 15mph /  24.1km/h - 3mph /  4.8km/h
Wind Gust: 22mph /  35.4km/h - -
Wind- - West
Pressure: 30.3 in /  1026.8 hPa 30 in /  1016.9 hPa -
Precipitation: 0.13 in /  3.3 mm    
Historical Graphs
 
 
Tabular Data for September 29, 2021
Time Temperature Dew Point Pressure Wind Wind Speed Wind Gust Humidity Rainfall Rate (Hourly) solar
00:01 49.6 °F /  9.8 °C 48 °F /  8.9 °C 30.1in /  1018.6hPa Calm     94% 0in /  0.0mm 0 W/m2
00:06 49.6 °F /  9.8 °C 48.2 °F /  9 °C 30.1in /  1018.6hPa Calm     95% 0in /  0.0mm 0 W/m2
00:11 49.5 °F /  9.7 °C 48 °F /  8.9 °C 30.1in /  1018.6hPa Calm     95% 0in /  0.0mm 0 W/m2
00:16 49.5 °F /  9.7 °C 48 °F /  8.9 °C 30.1in /  1018.6hPa Calm     95% 0in /  0.0mm 0 W/m2
00:21 49.3 °F /  9.6 °C 47.8 °F /  8.8 °C 30.1in /  1018.3hPa Calm     95% 0in /  0.0mm 0 W/m2
00:26 49.3 °F /  9.6 °C 47.8 °F /  8.8 °C 30.1in /  1018.6hPa Calm     95% 0in /  0.0mm 0 W/m2
00:31 49.1 °F /  9.5 °C 47.7 °F /  8.7 °C 30.1in /  1018.3hPa Calm     95% 0in /  0.0mm 0 W/m2
00:36 48.9 °F /  9.4 °C 47.5 °F /  8.6 °C 30.1in /  1018.6hPa Calm     95% 0in /  0.0mm 0 W/m2
00:41 48.9 °F /  9.4 °C 47.5 °F /  8.6 °C 30.1in /  1018.3hPa Calm     95% 0in /  0.0mm 0 W/m2
00:46 48.7 °F /  9.3 °C 47.3 °F /  8.5 °C 30.1in /  1018.3hPa Calm     95% 0in /  0.0mm 0 W/m2
00:51 48.7 °F /  9.3 °C 47.3 °F /  8.5 °C 30.1in /  1018.3hPa Calm     95% 0in /  0.0mm 0 W/m2
00:56 48.7 °F /  9.3 °C 47.3 °F /  8.5 °C 30.1in /  1018.3hPa Calm     95% 0in /  0.0mm 0 W/m2
01:01 48.7 °F /  9.3 °C 47.3 °F /  8.5 °C 30.1in /  1018.3hPa Calm     95% 0in /  0.0mm 0 W/m2
01:06 48.7 °F /  9.3 °C 47.3 °F /  8.5 °C 30.1in /  1018.3hPa Calm     95% 0in /  0.0mm 0 W/m2
01:11 48.7 °F /  9.3 °C 47.3 °F /  8.5 °C 30.1in /  1018.3hPa Calm     95% 0in /  0.0mm 0 W/m2
01:16 48.6 °F /  9.2 °C 47.1 °F /  8.4 °C 30.1in /  1018.3hPa Calm     95% 0in /  0.0mm 0 W/m2
01:21 48.6 °F /  9.2 °C 47.1 °F /  8.4 °C 30.1in /  1018.3hPa Calm     95% 0in /  0.0mm 0 W/m2
01:26 48.6 °F /  9.2 °C 47.1 °F /  8.4 °C 30.1in /  1018.3hPa Calm     95% 0in /  0.0mm 0 W/m2
01:31 48.6 °F /  9.2 °C 47.1 °F /  8.4 °C 30.1in /  1018.3hPa Calm     95% 0in /  0.0mm 0 W/m2
01:36 48.4 °F /  9.1 °C 46.9 °F /  8.3 °C 30.1in /  1018.0hPa Calm     95% 0in /  0.0mm 0 W/m2
01:41 48.4 °F /  9.1 °C 47.3 °F /  8.5 °C 30.1in /  1018.0hPa Calm     96% 0in /  0.0mm 0 W/m2
01:46 48.4 °F /  9.1 °C 47.3 °F /  8.5 °C 30.1in /  1018.3hPa Calm     96% 0in /  0.0mm 0 W/m2
01:51 48.4 °F /  9.1 °C 47.3 °F /  8.5 °C 30.1in /  1018.0hPa Calm     96% 0in /  0.0mm 0 W/m2
01:56 48.4 °F /  9.1 °C 47.3 °F /  8.5 °C 30.1in /  1018.0hPa Calm     96% 0in /  0.0mm 0 W/m2
02:01 48.4 °F /  9.1 °C 47.3 °F /  8.5 °C 30.1in /  1018.0hPa Calm     96% 0in /  0.0mm 0 W/m2
02:06 48.4 °F /  9.1 °C 47.3 °F /  8.5 °C 30.1in /  1018.0hPa Calm     96% 0in /  0.0mm 0 W/m2
02:11 48.4 °F /  9.1 °C 47.3 °F /  8.5 °C 30.1in /  1018.0hPa Calm     96% 0in /  0.0mm 0 W/m2
02:16 48.4 °F /  9.1 °C 47.3 °F /  8.5 °C 30.1in /  1018.0hPa Calm     96% 0in /  0.0mm 0 W/m2
02:21 48.4 °F /  9.1 °C 47.3 °F /  8.5 °C 30.1in /  1018.0hPa Calm     96% 0in /  0.0mm 0 W/m2
02:26 48.4 °F /  9.1 °C 47.3 °F /  8.5 °C 30.1in /  1018.0hPa Calm     96% 0in /  0.0mm 0 W/m2
02:31 48.2 °F /  9 °C 47.1 °F /  8.4 °C 30.1in /  1018.0hPa Calm     96% 0in /  0.0mm 0 W/m2
02:36 48 °F /  8.9 °C 46.9 °F /  8.3 °C 30.1in /  1018.0hPa Calm     96% 0in /  0.0mm 0 W/m2
02:41 48 °F /  8.9 °C 46.9 °F /  8.3 °C 30.1in /  1018.0hPa Calm     96% 0in /  0.0mm 0 W/m2
02:46 48 °F /  8.9 °C 46.9 °F /  8.3 °C 30.1in /  1018.0hPa Calm     96% 0in /  0.0mm 0 W/m2
02:51 48 °F /  8.9 °C 46.9 °F /  8.3 °C 30.1in /  1018.0hPa Calm     96% 0in /  0.0mm 0 W/m2
02:56 47.8 °F /  8.8 °C 46.8 °F /  8.2 °C 30.1in /  1018.0hPa Calm     96% 0in /  0.0mm 0 W/m2
03:01 48 °F /  8.9 °C 46.9 °F /  8.3 °C 30.1in /  1018.0hPa Calm     96% 0in /  0.0mm 0 W/m2
03:06 48 °F /  8.9 °C 46.9 °F /  8.3 °C 30.1in /  1018.0hPa Calm     96% 0in /  0.0mm 0 W/m2
03:11 48.2 °F /  9 °C 47.1 °F /  8.4 °C 30.1in /  1017.6hPa Calm     96% 0in /  0.0mm 0 W/m2
03:16 48.2 °F /  9 °C 47.1 °F /  8.4 °C 30.1in /  1017.6hPa Calm     96% 0in /  0.0mm 0 W/m2
03:21 48.2 °F /  9 °C 47.1 °F /  8.4 °C 30.1in /  1017.6hPa Calm     96% 0in /  0.0mm 0 W/m2
03:26 48.4 °F /  9.1 °C 47.3 °F /  8.5 °C 30.1in /  1017.6hPa Calm     96% 0in /  0.0mm 0 W/m2
03:31 48.2 °F /  9 °C 47.1 °F /  8.4 °C 30.1in /  1017.6hPa Calm     96% 0in /  0.0mm 0 W/m2
03:36 48.2 °F /  9 °C 47.1 °F /  8.4 °C 30.1in /  1017.6hPa Calm     96% 0in /  0.0mm 0 W/m2
03:41 48.2 °F /  9 °C 47.1 °F /  8.4 °C 30.1in /  1017.6hPa Calm     96% 0in /  0.0mm 0 W/m2
03:46 48 °F /  8.9 °C 46.9 °F /  8.3 °C 30.1in /  1017.6hPa Calm     96% 0in /  0.0mm 0 W/m2
03:51 48 °F /  8.9 °C 46.9 °F /  8.3 °C 30.1in /  1017.6hPa Calm     96% 0in /  0.0mm 0 W/m2
03:56 47.8 °F /  8.8 °C 46.8 °F /  8.2 °C 30.1in /  1017.6hPa Calm     96% 0in /  0.0mm 0 W/m2
04:01 47.8 °F /  8.8 °C 46.8 °F /  8.2 °C 30in /  1017.3hPa Calm     96% 0in /  0.0mm 0 W/m2
04:06 47.7 °F /  8.7 °C 46.6 °F /  8.1 °C 30in /  1017.3hPa Calm     96% 0in /  0.0mm 0 W/m2
04:11 47.5 °F /  8.6 °C 46.4 °F /  8 °C 30in /  1017.3hPa Calm     96% 0in /  0.0mm 0 W/m2
04:16 47.5 °F /  8.6 °C 46.4 °F /  8 °C 30in /  1017.3hPa Calm     96% 0in /  0.0mm 0 W/m2
04:21 47.1 °F /  8.4 °C 46 °F /  7.8 °C 30in /  1017.3hPa Calm     96% 0in /  0.0mm 0 W/m2
04:26 47.1 °F /  8.4 °C 46 °F /  7.8 °C 30in /  1017.3hPa Calm     96% 0in /  0.0mm 0 W/m2
04:31 47.1 °F /  8.4 °C 46 °F /  7.8 °C 30in /  1017.3hPa Calm     96% 0in /  0.0mm 0 W/m2
04:36 46.9 °F /  8.3 °C 45.9 °F /  7.7 °C 30in /  1017.3hPa Calm     96% 0in /  0.0mm 0 W/m2
04:41 46.9 °F /  8.3 °C 45.9 °F /  7.7 °C 30in /  1017.3hPa Calm     96% 0in /  0.0mm 0 W/m2
04:46 46.9 °F /  8.3 °C 45.9 °F /  7.7 °C 30in /  1017.3hPa Calm     96% 0in /  0.0mm 0 W/m2
04:51 46.8 °F /  8.2 °C 45.7 °F /  7.6 °C 30in /  1017.3hPa Calm     96% 0in /  0.0mm 0 W/m2
04:56 46.6 °F /  8.1 °C 45.5 °F /  7.5 °C 30in /  1016.9hPa Calm     96% 0in /  0.0mm 0 W/m2
05:01 46.6 °F /  8.1 °C 45.5 °F /  7.5 °C 30in /  1017.3hPa Calm     96% 0in /  0.0mm 0 W/m2
05:06 46.4 °F /  8 °C 45.3 °F /  7.4 °C 30in /  1017.3hPa Calm     96% 0in /  0.0mm 0 W/m2
05:11 46.2 °F /  7.9 °C 45.1 °F /  7.3 °C 30in /  1017.3hPa Calm     96% 0in /  0.0mm 0 W/m2
05:16 46 °F /  7.8 °C 45 °F /  7.2 °C 30in /  1017.3hPa Calm     96% 0in /  0.0mm 0 W/m2
05:21 46 °F /  7.8 °C 45 °F /  7.2 °C 30in /  1017.3hPa Calm     96% 0in /  0.0mm 0 W/m2
05:26 45.9 °F /  7.7 °C 44.8 °F /  7.1 °C 30in /  1017.3hPa Calm     96% 0in /  0.0mm 0 W/m2
05:31 45.9 °F /  7.7 °C 44.8 °F /  7.1 °C 30in /  1017.3hPa Calm     96% 0in /  0.0mm 0 W/m2
05:36 45.9 °F /  7.7 °C 44.8 °F /  7.1 °C 30in /  1017.3hPa Calm     96% 0in /  0.0mm 0 W/m2
05:41 45.9 °F /  7.7 °C 44.8 °F /  7.1 °C 30in /  1017.3hPa Calm     96% 0in /  0.0mm 0 W/m2
05:46 46 °F /  7.8 °C 45 °F /  7.2 °C 30in /  1017.3hPa Calm     96% 0in /  0.0mm 0 W/m2
05:51 46.2 °F /  7.9 °C 45.1 °F /  7.3 °C 30in /  1017.3hPa Calm     96% 0in /  0.0mm 0 W/m2
05:56 46.4 °F /  8 °C 45.3 °F /  7.4 °C 30in /  1017.3hPa Calm     96% 0in /  0.0mm 0 W/m2
06:01 46.8 °F /  8.2 °C 46 °F /  7.8 °C 30in /  1017.3hPa Calm     97% 0in /  0.0mm 0 W/m2
06:06 46.9 °F /  8.3 °C 46.2 °F /  7.9 °C 30in /  1016.9hPa Calm     97% 0in /  0.0mm 0 W/m2
06:11 46.9 °F /  8.3 °C 46.2 °F /  7.9 °C 30in /  1016.9hPa Calm     97% 0in /  0.0mm 0 W/m2
06:16 47.1 °F /  8.4 °C 46.4 °F /  8 °C 30in /  1017.3hPa Calm     97% 0in /  0.0mm 0 W/m2
06:21 47.1 °F /  8.4 °C 46.4 °F /  8 °C 30in /  1016.9hPa Calm     97% 0in /  0.0mm 0 W/m2
06:26 46.9 °F /  8.3 °C 46.2 °F /  7.9 °C 30in /  1016.9hPa Calm     97% 0in /  0.0mm 0 W/m2
06:31 46.9 °F /  8.3 °C 46.2 °F /  7.9 °C 30in /  1016.9hPa Calm   1mph /  1.6km/h 97% 0in /  0.0mm 0 W/m2
06:36 46.8 °F /  8.2 °C 45.7 °F /  7.6 °C 30in /  1016.9hPa Calm   1mph /  1.6km/h 96% 0in /  0.0mm 0 W/m2
06:41 46.9 °F /  8.3 °C 45.9 °F /  7.7 °C 30in /  1016.9hPa East 2mph /  3.2km/h 2mph /  3.2km/h 96% 0in /  0.0mm 0 W/m2
06:46 46.9 °F /  8.3 °C 46.2 °F /  7.9 °C 30in /  1016.9hPa Calm     97% 0in /  0.0mm 0 W/m2
06:51 46.9 °F /  8.3 °C 46.2 °F /  7.9 °C 30in /  1016.9hPa Calm     97% 0in /  0.0mm 0 W/m2
06:57 46.9 °F /  8.3 °C 46.2 °F /  7.9 °C 30in /  1017.3hPa Calm     97% 0in /  0.0mm 0 W/m2
07:02 47.1 °F /  8.4 °C 46.4 °F /  8 °C 30in /  1017.3hPa Calm   2mph /  3.2km/h 97% 0in /  0.0mm 0 W/m2
07:07 47.1 °F /  8.4 °C 46.4 °F /  8 °C 30in /  1016.9hPa East 0.9mph /  1.4km/h 1mph /  1.6km/h 97% 0in /  0.0mm 0 W/m2
07:12 47.3 °F /  8.5 °C 46.6 °F /  8.1 °C 30in /  1016.9hPa Calm   1mph /  1.6km/h 97% 0in /  0.0mm 0 W/m2
07:17 47.8 °F /  8.8 °C 46.9 °F /  8.3 °C 30in /  1016.9hPa SE 0.9mph /  1.4km/h 3mph /  4.8km/h 97% 0in /  0.0mm 0 W/m2
07:22 48.6 °F /  9.2 °C 47.7 °F /  8.7 °C 30in /  1016.9hPa South 2mph /  3.2km/h 2mph /  3.2km/h 97% 0in /  0.0mm 0 W/m2
07:27 49.5 °F /  9.7 °C 48.6 °F /  9.2 °C 30in /  1016.9hPa NNW 2mph /  3.2km/h 3mph /  4.8km/h 97% 0in /  0.0mm 0 W/m2
07:32 50.2 °F /  10.1 °C 49.3 °F /  9.6 °C 30in /  1016.9hPa Calm   1mph /  1.6km/h 97% 0.01in /  0.2mm 0 W/m2
07:37 50.4 °F /  10.2 °C 49.5 °F /  9.7 °C 30in /  1016.9hPa Calm   2mph /  3.2km/h 97% 0.01in /  0.2mm 0 W/m2
07:42 50.5 °F /  10.3 °C 49.6 °F /  9.8 °C 30in /  1016.9hPa Calm   2mph /  3.2km/h 97% 0.01in /  0.2mm 0 W/m2
07:47 50.7 °F /  10.4 °C 49.8 °F /  9.9 °C 30in /  1016.9hPa WSW 0.9mph /  1.4km/h 4mph /  6.4km/h 97% 0.01in /  0.2mm 0 W/m2
07:52 50.9 °F /  10.5 °C 50 °F /  10 °C 30in /  1016.9hPa NE 0.9mph /  1.4km/h 2mph /  3.2km/h 97% 0.01in /  0.2mm 0 W/m2
07:57 51.1 °F /  10.6 °C 50.2 °F /  10.1 °C 30in /  1016.9hPa ESE 0.9mph /  1.4km/h 3mph /  4.8km/h 97% 0.01in /  0.2mm 0 W/m2
08:02 51.3 °F /  10.7 °C 50.2 °F /  10.1 °C 30in /  1017.3hPa Calm   2mph /  3.2km/h 96% 0.01in /  0.2mm 5 W/m2
08:07 51.4 °F /  10.8 °C 50.4 °F /  10.2 °C 30in /  1016.9hPa Calm   2mph /  3.2km/h 96% 0.01in /  0.2mm 12 W/m2
08:12 51.6 °F /  10.9 °C 50.2 °F /  10.1 °C 30in /  1016.9hPa WSW 0.9mph /  1.4km/h 2mph /  3.2km/h 95% 0.01in /  0.2mm 11 W/m2
08:17 51.6 °F /  10.9 °C 50.2 °F /  10.1 °C 30in /  1016.9hPa Calm   2mph /  3.2km/h 95% 0.01in /  0.2mm 14 W/m2
08:22 51.8 °F /  11 °C 50.4 °F /  10.2 °C 30in /  1017.3hPa North 0.9mph /  1.4km/h 2mph /  3.2km/h 95% 0.01in /  0.2mm 19 W/m2
08:27 52 °F /  11.1 °C 50.5 °F /  10.3 °C 30in /  1017.3hPa Calm   1mph /  1.6km/h 95% 0.01in /  0.2mm 30 W/m2
08:32 52.2 °F /  11.2 °C 50.5 °F /  10.3 °C 30in /  1017.3hPa NNW 2.9mph /  4.7km/h 3mph /  4.8km/h 94% 0in /  0.0mm 37 W/m2
08:37 52.5 °F /  11.4 °C 50.9 °F /  10.5 °C 30in /  1017.3hPa NW 2mph /  3.2km/h 4mph /  6.4km/h 94% 0in /  0.0mm 37 W/m2
08:42 52.9 °F /  11.6 °C 51.3 °F /  10.7 °C 30in /  1017.3hPa NNW 5mph /  8km/h 5mph /  8km/h 94% 0in /  0.0mm 46 W/m2
08:47 53.1 °F /  11.7 °C 51.1 °F /  10.6 °C 30in /  1017.3hPa NW 2mph /  3.2km/h 3mph /  4.8km/h 93% 0in /  0.0mm 53 W/m2
08:52 53.2 °F /  11.8 °C 50.9 °F /  10.5 °C 30in /  1017.3hPa North 4mph /  6.4km/h 6mph /  9.7km/h 92% 0in /  0.0mm 63 W/m2
08:57 53.6 °F /  12 °C 51.3 °F /  10.7 °C 30in /  1017.3hPa NNW 4mph /  6.4km/h 4mph /  6.4km/h 92% 0in /  0.0mm 63 W/m2
09:02 53.8 °F /  12.1 °C 51.4 °F /  10.8 °C 30in /  1017.3hPa ENE 2mph /  3.2km/h 5mph /  8km/h 92% 0in /  0.0mm 67 W/m2
09:07 54 °F /  12.2 °C 51.4 °F /  10.8 °C 30in /  1017.3hPa West 0.9mph /  1.4km/h 3mph /  4.8km/h 91% 0in /  0.0mm 58 W/m2
09:12 54.1 °F /  12.3 °C 51.6 °F /  10.9 °C 30in /  1017.3hPa NE 2mph /  3.2km/h 3mph /  4.8km/h 91% 0in /  0.0mm 69 W/m2
09:17 54.1 °F /  12.3 °C 51.6 °F /  10.9 °C 30in /  1017.3hPa NW 2mph /  3.2km/h 9mph /  14.5km/h 91% 0in /  0.0mm 63 W/m2
09:22 54.3 °F /  12.4 °C 51.4 °F /  10.8 °C 30in /  1017.3hPa West 2mph /  3.2km/h 5mph /  8km/h 90% 0in /  0.0mm 70 W/m2
09:27 54.7 °F /  12.6 °C 51.8 °F /  11 °C 30in /  1017.3hPa ENE 2.9mph /  4.7km/h 7mph /  11.3km/h 90% 0in /  0.0mm 97 W/m2
09:32 54.9 °F /  12.7 °C 52 °F /  11.1 °C 30in /  1017.3hPa NNW 0.9mph /  1.4km/h 5mph /  8km/h 90% 0in /  0.0mm 83 W/m2
09:37 55 °F /  12.8 °C 52.2 °F /  11.2 °C 30in /  1017.3hPa Calm   9mph /  14.5km/h 90% 0in /  0.0mm 58 W/m2
09:42 55 °F /  12.8 °C 51.8 °F /  11 °C 30in /  1017.3hPa North 4mph /  6.4km/h 5mph /  8km/h 89% 0in /  0.0mm 79 W/m2
09:47 55.2 °F /  12.9 °C 52 °F /  11.1 °C 30in /  1017.3hPa NE 0.9mph /  1.4km/h 6mph /  9.7km/h 89% 0in /  0.0mm 327 W/m2
09:52 55.6 °F /  13.1 °C 52.3 °F /  11.3 °C 30in /  1017.3hPa WNW 4mph /  6.4km/h 7mph /  11.3km/h 89% 0in /  0.0mm 142 W/m2
09:57 55.9 °F /  13.3 °C 52.7 °F /  11.5 °C 30in /  1017.3hPa Calm   7mph /  11.3km/h 89% 0in /  0.0mm 292 W/m2
10:02 56.1 °F /  13.4 °C 52.9 °F /  11.6 °C 30in /  1016.9hPa NW 2mph /  3.2km/h 4mph /  6.4km/h 89% 0in /  0.0mm 315 W/m2
10:07 56.7 °F /  13.7 °C 53.1 °F /  11.7 °C 30in /  1016.9hPa WSW 2.9mph /  4.7km/h 9mph /  14.5km/h 88% 0in /  0.0mm 332 W/m2
10:12 56.8 °F /  13.8 °C 53.1 °F /  11.7 °C 30in /  1016.9hPa NNW 8.1mph /  13km/h 12mph /  19.3km/h 87% 0in /  0.0mm 355 W/m2
10:17 57 °F /  13.9 °C 53.2 °F /  11.8 °C 30in /  1016.9hPa NW 2.9mph /  4.7km/h 6mph /  9.7km/h 87% 0in /  0.0mm 441 W/m2
10:22 57.6 °F /  14.2 °C 53.8 °F /  12.1 °C 30in /  1016.9hPa NNW 2.9mph /  4.7km/h 9mph /  14.5km/h 87% 0in /  0.0mm 439 W/m2
10:27 57.7 °F /  14.3 °C 53.6 °F /  12 °C 30in /  1016.9hPa WNW 4mph /  6.4km/h 8mph /  12.9km/h 86% 0in /  0.0mm 139 W/m2
10:32 57.7 °F /  14.3 °C 53.6 °F /  12 °C 30in /  1016.9hPa NNE 2.9mph /  4.7km/h 7mph /  11.3km/h 86% 0in /  0.0mm 100 W/m2
10:37 57.6 °F /  14.2 °C 53.4 °F /  11.9 °C 30in /  1016.9hPa SSW 0.9mph /  1.4km/h 8mph /  12.9km/h 86% 0in /  0.0mm 56 W/m2
10:42 57.4 °F /  14.1 °C 53.6 °F /  12 °C 30in /  1017.3hPa West 2.9mph /  4.7km/h 6mph /  9.7km/h 87% 0in /  0.0mm 46 W/m2
10:47 57 °F /  13.9 °C 53.2 °F /  11.8 °C 30in /  1016.9hPa NW 2mph /  3.2km/h 5mph /  8km/h 87% 0in /  0.0mm 35 W/m2
10:52 56.8 °F /  13.8 °C 53.2 °F /  11.8 °C 30in /  1017.3hPa NW 2mph /  3.2km/h 4mph /  6.4km/h 88% 0.01in /  0.2mm 21 W/m2
10:57 56.7 °F /  13.7 °C 53.4 °F /  11.9 °C 30in /  1017.3hPa WNW 4mph /  6.4km/h 8mph /  12.9km/h 89% 0.05in /  1.3mm 28 W/m2
11:02 56.1 °F /  13.4 °C 53.2 °F /  11.8 °C 30in /  1017.3hPa NW 4mph /  6.4km/h 5mph /  8km/h 90% 0.06in /  1.5mm 86 W/m2
11:07 56.1 °F /  13.4 °C 53.6 °F /  12 °C 30in /  1017.3hPa NNW 0.9mph /  1.4km/h 8mph /  12.9km/h 91% 0.07in /  1.8mm 137 W/m2
11:12 56.1 °F /  13.4 °C 53.8 °F /  12.1 °C 30in /  1017.3hPa Calm   3mph /  4.8km/h 92% 0.07in /  1.8mm 102 W/m2
11:17 56.1 °F /  13.4 °C 53.8 °F /  12.1 °C 30in /  1017.3hPa NW 0.9mph /  1.4km/h 8mph /  12.9km/h 92% 0.07in /  1.8mm 91 W/m2
11:22 55.9 °F /  13.3 °C 53.6 °F /  12 °C 30in /  1017.3hPa WSW 4.9mph /  7.9km/h 7mph /  11.3km/h 92% 0.08in /  2.0mm 88 W/m2
11:27 55.9 °F /  13.3 °C 53.6 °F /  12 °C 30in /  1017.3hPa WNW 2mph /  3.2km/h 7mph /  11.3km/h 92% 0.09in /  2.3mm 51 W/m2
11:32 55.8 °F /  13.2 °C 53.4 °F /  11.9 °C 30in /  1017.3hPa West 6.9mph /  11.1km/h 7mph /  11.3km/h 92% 0.09in /  2.3mm 97 W/m2
11:37 55.8 °F /  13.2 °C 53.4 °F /  11.9 °C 30in /  1017.3hPa West 4mph /  6.4km/h 9mph /  14.5km/h 92% 0.09in /  2.3mm 204 W/m2
11:42 56.1 °F /  13.4 °C 54.1 °F /  12.3 °C 30.1in /  1017.6hPa WNW 2mph /  3.2km/h 7mph /  11.3km/h 93% 0.09in /  2.3mm 339 W/m2
11:47 56.5 °F /  13.6 °C 54.5 °F /  12.5 °C 30.1in /  1017.6hPa NW 4mph /  6.4km/h 5mph /  8km/h 93% 0.09in /  2.3mm 250 W/m2
11:52 56.7 °F /  13.7 °C 54.3 °F /  12.4 °C 30.1in /  1017.6hPa West 2.9mph /  4.7km/h 7mph /  11.3km/h 92% 0.09in /  2.3mm 172 W/m2
11:57 56.5 °F /  13.6 °C 54.1 °F /  12.3 °C 30.1in /  1018.0hPa West 4mph /  6.4km/h 8mph /  12.9km/h 92% 0.06in /  1.5mm 111 W/m2
12:02 56.1 °F /  13.4 °C 53.8 °F /  12.1 °C 30.1in /  1018.0hPa WNW 10.1mph /  16.3km/h 11mph /  17.7km/h 92% 0.05in /  1.3mm 329 W/m2
12:07 56.5 °F /  13.6 °C 54.1 °F /  12.3 °C 30.1in /  1018.0hPa West 4mph /  6.4km/h 11mph /  17.7km/h 92% 0.04in /  1.0mm 707 W/m2
12:12 56.8 °F /  13.8 °C 54.3 °F /  12.4 °C 30.1in /  1018.0hPa West 6mph /  9.7km/h 8mph /  12.9km/h 91% 0.04in /  1.0mm 279 W/m2
12:17 56.8 °F /  13.8 °C 54 °F /  12.2 °C 30.1in /  1018.0hPa West 8.1mph /  13km/h 12mph /  19.3km/h 90% 0.04in /  1.0mm 515 W/m2
12:22 56.7 °F /  13.7 °C 53.4 °F /  11.9 °C 30.1in /  1018.0hPa West 6.9mph /  11.1km/h 10mph /  16.1km/h 89% 0.03in /  0.8mm 299 W/m2
12:27 56.7 °F /  13.7 °C 53.8 °F /  12.1 °C 30.1in /  1018.3hPa West 6mph /  9.7km/h 12mph /  19.3km/h 90% 0.02in /  0.5mm 666 W/m2
12:32 56.8 °F /  13.8 °C 53.6 °F /  12 °C 30.1in /  1018.3hPa WSW 4mph /  6.4km/h 8mph /  12.9km/h 89% 0.02in /  0.5mm 315 W/m2
12:37 56.7 °F /  13.7 °C 52.9 °F /  11.6 °C 30.1in /  1018.3hPa WSW 4.9mph /  7.9km/h 12mph /  19.3km/h 87% 0.02in /  0.5mm 250 W/m2
12:42 56.5 °F /  13.6 °C 52.7 °F /  11.5 °C 30.1in /  1018.3hPa West 11mph /  17.7km/h 11mph /  17.7km/h 87% 0.02in /  0.5mm 216 W/m2
12:47 56.3 °F /  13.5 °C 52.5 °F /  11.4 °C 30.1in /  1018.6hPa West 4mph /  6.4km/h 12mph /  19.3km/h 87% 0.02in /  0.5mm 214 W/m2
12:52 56.1 °F /  13.4 °C 52.3 °F /  11.3 °C 30.1in /  1018.6hPa NW 15mph /  24.1km/h 15mph /  24.1km/h 87% 0.02in /  0.5mm 250 W/m2
12:57 56.3 °F /  13.5 °C 52.9 °F /  11.6 °C 30.1in /  1018.6hPa West 2mph /  3.2km/h 9mph /  14.5km/h 88% 0.01in /  0.2mm 306 W/m2
13:02 56.5 °F /  13.6 °C 52.9 °F /  11.6 °C 30.1in /  1018.6hPa West 2.9mph /  4.7km/h 8mph /  12.9km/h 88% 0in /  0.0mm 243 W/m2
13:07 56.5 °F /  13.6 °C 52.7 °F /  11.5 °C 30.1in /  1019.0hPa West 8.1mph /  13km/h 12mph /  19.3km/h 87% 0in /  0.0mm 272 W/m2
13:12 56.7 °F /  13.7 °C 52.2 °F /  11.2 °C 30.1in /  1019.0hPa West 8.9mph /  14.3km/h 12mph /  19.3km/h 85% 0in /  0.0mm 608 W/m2
13:17 57 °F /  13.9 °C 52 °F /  11.1 °C 30.1in /  1019.0hPa NW 4mph /  6.4km/h 13mph /  20.9km/h 83% 0in /  0.0mm 617 W/m2
13:22 57.4 °F /  14.1 °C 51.6 °F /  10.9 °C 30.1in /  1019.0hPa WSW 2.9mph /  4.7km/h 11mph /  17.7km/h 81% 0in /  0.0mm 631 W/m2
13:27 57.4 °F /  14.1 °C 51.3 °F /  10.7 °C 30.1in /  1019.0hPa West 6.9mph /  11.1km/h 11mph /  17.7km/h 80% 0in /  0.0mm 214 W/m2
13:32 57.7 °F /  14.3 °C 52.3 °F /  11.3 °C 30.1in /  1019.0hPa WNW 11mph /  17.7km/h 11mph /  17.7km/h 82% 0in /  0.0mm 654 W/m2
13:37 58.1 °F /  14.5 °C 51.3 °F /  10.7 °C 30.1in /  1019.0hPa WNW 8.9mph /  14.3km/h 15mph /  24.1km/h 78% 0in /  0.0mm 691 W/m2
13:42 58.5 °F /  14.7 °C 51.3 °F /  10.7 °C 30.1in /  1019.0hPa West 2.9mph /  4.7km/h 9mph /  14.5km/h 77% 0in /  0.0mm 691 W/m2
13:47 59 °F /  15 °C 51.4 °F /  10.8 °C 30.1in /  1019.0hPa NW 2mph /  3.2km/h 9mph /  14.5km/h 76% 0in /  0.0mm 680 W/m2
13:52 59 °F /  15 °C 50.7 °F /  10.4 °C 30.1in /  1019.0hPa NW 6.9mph /  11.1km/h 13mph /  20.9km/h 74% 0in /  0.0mm 202 W/m2
13:57 58.6 °F /  14.8 °C 50.7 °F /  10.4 °C 30.1in /  1019.0hPa WSW 4.9mph /  7.9km/h 13mph /  20.9km/h 75% 0in /  0.0mm 137 W/m2
14:03 58.5 °F /  14.7 °C 50.5 °F /  10.3 °C 30.1in /  1019.0hPa NW 4mph /  6.4km/h 13mph /  20.9km/h 75% 0in /  0.0mm 137 W/m2
14:08 58.6 °F /  14.8 °C 50.7 °F /  10.4 °C 30.1in /  1019.0hPa WNW 8.9mph /  14.3km/h 17mph /  27.4km/h 75% 0in /  0.0mm 213 W/m2
14:13 58.6 °F /  14.8 °C 50.7 °F /  10.4 °C 30.1in /  1019.3hPa SW 4.9mph /  7.9km/h 10mph /  16.1km/h 75% 0in /  0.0mm 167 W/m2
14:18 58.5 °F /  14.7 °C 50.2 °F /  10.1 °C 30.1in /  1019.3hPa WSW 6mph /  9.7km/h 15mph /  24.1km/h 74% 0in /  0.0mm 56 W/m2
14:23 58.5 °F /  14.7 °C 50.2 °F /  10.1 °C 30.1in /  1019.3hPa WSW 2.9mph /  4.7km/h 8mph /  12.9km/h 74% 0in /  0.0mm 58 W/m2
14:28 58.5 °F /  14.7 °C 50.2 °F /  10.1 °C 30.1in /  1019.3hPa West 6.9mph /  11.1km/h 9mph /  14.5km/h 74% 0in /  0.0mm 51 W/m2
14:33 58.8 °F /  14.9 °C 50.9 °F /  10.5 °C 30.1in /  1019.3hPa NW 2mph /  3.2km/h 7mph /  11.3km/h 75% 0in /  0.0mm 76 W/m2
14:38 59.4 °F /  15.2 °C 50.7 °F /  10.4 °C 30.1in /  1019.3hPa WSW 4mph /  6.4km/h 12mph /  19.3km/h 73% 0in /  0.0mm 207 W/m2
14:43 59.7 °F /  15.4 °C 50.4 °F /  10.2 °C 30.1in /  1019.3hPa WNW 8.1mph /  13km/h 9mph /  14.5km/h 71% 0in /  0.0mm 406 W/m2
14:48 60.3 °F /  15.7 °C 50 °F /  10 °C 30.1in /  1019.3hPa West 2.9mph /  4.7km/h 9mph /  14.5km/h 69% 0in /  0.0mm 153 W/m2
14:53 60.3 °F /  15.7 °C 50 °F /  10 °C 30.1in /  1019.3hPa WSW 4.9mph /  7.9km/h 5mph /  8km/h 69% 0in /  0.0mm 86 W/m2
14:58 60.1 °F /  15.6 °C 49.8 °F /  9.9 °C 30.1in /  1019.3hPa WSW 2mph /  3.2km/h 5mph /  8km/h 69% 0in /  0.0mm 118 W/m2
15:03 59.9 °F /  15.5 °C 48.9 °F /  9.4 °C 30.1in /  1019.6hPa West 8.1mph /  13km/h 9mph /  14.5km/h 67% 0in /  0.0mm 114 W/m2
15:08 59.4 °F /  15.2 °C 48.7 °F /  9.3 °C 30.1in /  1019.6hPa WNW 2mph /  3.2km/h 14mph /  22.5km/h 68% 0in /  0.0mm 60 W/m2
15:13 58.8 °F /  14.9 °C 47.8 °F /  8.8 °C 30.1in /  1019.6hPa WSW 8.9mph /  14.3km/h 10mph /  16.1km/h 67% 0in /  0.0mm 93 W/m2
15:18 58.6 °F /  14.8 °C 46.9 °F /  8.3 °C 30.1in /  1019.6hPa NNW 4.9mph /  7.9km/h 14mph /  22.5km/h 65% 0in /  0.0mm 111 W/m2
15:23 58.5 °F /  14.7 °C 46.8 °F /  8.2 °C 30.1in /  1019.6hPa NNW 4.9mph /  7.9km/h 15mph /  24.1km/h 65% 0in /  0.0mm 113 W/m2
15:28 59 °F /  15 °C 47.3 °F /  8.5 °C 30.1in /  1019.6hPa West 8.1mph /  13km/h 13mph /  20.9km/h 65% 0in /  0.0mm 121 W/m2
15:33 59.5 °F /  15.3 °C 46.9 °F /  8.3 °C 30.1in /  1020.0hPa West 6.9mph /  11.1km/h 15mph /  24.1km/h 63% 0in /  0.0mm 90 W/m2
15:38 59.5 °F /  15.3 °C 46.9 °F /  8.3 °C 30.1in /  1020.0hPa WNW 4mph /  6.4km/h 9mph /  14.5km/h 63% 0in /  0.0mm 86 W/m2
15:43 59.4 °F /  15.2 °C 46.8 °F /  8.2 °C 30.1in /  1020.0hPa WSW 11mph /  17.7km/h 11mph /  17.7km/h 63% 0in /  0.0mm 113 W/m2
15:48 59.2 °F /  15.1 °C 47.5 °F /  8.6 °C 30.1in /  1020.0hPa WNW 4mph /  6.4km/h 9mph /  14.5km/h 65% 0in /  0.0mm 113 W/m2
15:53 59.5 °F /  15.3 °C 46.9 °F /  8.3 °C 30.1in /  1020.0hPa SW 4.9mph /  7.9km/h 9mph /  14.5km/h 63% 0in /  0.0mm 519 W/m2
15:58 60.1 °F /  15.6 °C 45.7 °F /  7.6 °C 30.1in /  1020.3hPa West 6mph /  9.7km/h 8mph /  12.9km/h 59% 0in /  0.0mm 515 W/m2
16:03 60.4 °F /  15.8 °C 45.7 °F /  7.6 °C 30.1in /  1020.3hPa West 8.9mph /  14.3km/h 13mph /  20.9km/h 58% 0in /  0.0mm 69 W/m2
16:08 59.7 °F /  15.4 °C 45.9 °F /  7.7 °C 30.1in /  1020.7hPa WSW 8.9mph /  14.3km/h 11mph /  17.7km/h 60% 0in /  0.0mm 72 W/m2
16:13 58.6 °F /  14.8 °C 44.4 °F /  6.9 °C 30.1in /  1020.7hPa WSW 11mph /  17.7km/h 22mph /  35.4km/h 59% 0in /  0.0mm 114 W/m2
16:18 57.6 °F /  14.2 °C 43.3 °F /  6.3 °C 30.2in /  1021.0hPa NNW 13mph /  20.9km/h 19mph /  30.6km/h 59% 0in /  0.0mm 149 W/m2
16:23 56.7 °F /  13.7 °C 43.3 °F /  6.3 °C 30.2in /  1021.0hPa WNW 14.1mph /  22.7km/h 22mph /  35.4km/h 61% 0in /  0.0mm 107 W/m2
16:28 55.8 °F /  13.2 °C 45 °F /  7.2 °C 30.2in /  1021.3hPa WSW 4.9mph /  7.9km/h 13mph /  20.9km/h 67% 0in /  0.0mm 100 W/m2
16:33 54.7 °F /  12.6 °C 46.2 °F /  7.9 °C 30.2in /  1021.3hPa West 8.1mph /  13km/h 19mph /  30.6km/h 73% 0in /  0.0mm 258 W/m2
16:38 54.1 °F /  12.3 °C 45.7 °F /  7.6 °C 30.2in /  1021.0hPa WSW 2.9mph /  4.7km/h 12mph /  19.3km/h 73% 0.01in /  0.2mm 392 W/m2
16:43 54.3 °F /  12.4 °C 46.2 °F /  7.9 °C 30.2in /  1021.0hPa WNW 4mph /  6.4km/h 9mph /  14.5km/h 74% 0.01in /  0.2mm 378 W/m2
16:48 54.7 °F /  12.6 °C 46.2 °F /  7.9 °C 30.2in /  1021.0hPa WNW 2.9mph /  4.7km/h 12mph /  19.3km/h 73% 0.01in /  0.2mm 371 W/m2
16:53 55 °F /  12.8 °C 46.6 °F /  8.1 °C 30.2in /  1021.0hPa NW 4mph /  6.4km/h 8mph /  12.9km/h 73% 0.01in /  0.2mm 380 W/m2
16:58 55.6 °F /  13.1 °C 47.1 °F /  8.4 °C 30.2in /  1021.0hPa WSW 4.9mph /  7.9km/h 9mph /  14.5km/h 73% 0.01in /  0.2mm 397 W/m2
17:03 55.8 °F /  13.2 °C 46.6 °F /  8.1 °C 30.2in /  1021.3hPa WNW 8.1mph /  13km/h 8mph /  12.9km/h 71% 0.01in /  0.2mm 193 W/m2
17:08 55.8 °F /  13.2 °C 45.7 °F /  7.6 °C 30.2in /  1021.3hPa West 4mph /  6.4km/h 13mph /  20.9km/h 69% 0.01in /  0.2mm 137 W/m2
17:13 55.8 °F /  13.2 °C 46 °F /  7.8 °C 30.2in /  1021.3hPa WNW 2.9mph /  4.7km/h 7mph /  11.3km/h 70% 0.01in /  0.2mm 105 W/m2
17:18 55.8 °F /  13.2 °C 46.6 °F /  8.1 °C 30.2in /  1021.3hPa West 10.1mph /  16.3km/h 10mph /  16.1km/h 71% 0.01in /  0.2mm 178 W/m2
17:23 55.8 °F /  13.2 °C 46.6 °F /  8.1 °C 30.2in /  1021.3hPa WNW 2.9mph /  4.7km/h 14mph /  22.5km/h 71% 0.01in /  0.2mm 127 W/m2
17:28 55.8 °F /  13.2 °C 46.9 °F /  8.3 °C 30.2in /  1021.7hPa NW 4.9mph /  7.9km/h 9mph /  14.5km/h 72% 0.01in /  0.2mm 114 W/m2
17:33 55.8 °F /  13.2 °C 46.9 °F /  8.3 °C 30.2in /  1021.7hPa West 2.9mph /  4.7km/h 7mph /  11.3km/h 72% 0.01in /  0.2mm 88 W/m2
17:38 55.8 °F /  13.2 °C 46.9 °F /  8.3 °C 30.2in /  1021.7hPa West 4mph /  6.4km/h 9mph /  14.5km/h 72% 0in /  0.0mm 151 W/m2
17:43 55.8 °F /  13.2 °C 46.9 °F /  8.3 °C 30.2in /  1021.7hPa WSW 6.9mph /  11.1km/h 9mph /  14.5km/h 72% 0in /  0.0mm 72 W/m2
17:48 55.8 °F /  13.2 °C 46.9 °F /  8.3 °C 30.2in /  1021.7hPa WNW 2.9mph /  4.7km/h 8mph /  12.9km/h 72% 0in /  0.0mm 127 W/m2
17:53 56.1 °F /  13.4 °C 47.7 °F /  8.7 °C 30.2in /  1022.0hPa West 6mph /  9.7km/h 7mph /  11.3km/h 73% 0in /  0.0mm 227 W/m2
17:58 55.9 °F /  13.3 °C 47.1 °F /  8.4 °C 30.2in /  1022.0hPa West 4mph /  6.4km/h 6mph /  9.7km/h 72% 0in /  0.0mm 46 W/m2
18:03 55.8 °F /  13.2 °C 47.3 °F /  8.5 °C 30.2in /  1022.0hPa West 4mph /  6.4km/h 7mph /  11.3km/h 73% 0in /  0.0mm 44 W/m2
18:08 55.6 °F /  13.1 °C 46.8 °F /  8.2 °C 30.2in /  1022.4hPa West 6.9mph /  11.1km/h 11mph /  17.7km/h 72% 0in /  0.0mm 53 W/m2
18:13 55.4 °F /  13 °C 46.6 °F /  8.1 °C 30.2in /  1022.4hPa West 4mph /  6.4km/h 8mph /  12.9km/h 72% 0in /  0.0mm 47 W/m2
18:18 55.4 °F /  13 °C 46.6 °F /  8.1 °C 30.2in /  1022.4hPa West 4mph /  6.4km/h 11mph /  17.7km/h 72% 0in /  0.0mm 53 W/m2
18:23 55.6 °F /  13.1 °C 46.8 °F /  8.2 °C 30.2in /  1022.4hPa West 2mph /  3.2km/h 6mph /  9.7km/h 72% 0in /  0.0mm 47 W/m2
18:28 55.6 °F /  13.1 °C 47.1 °F /  8.4 °C 30.2in /  1022.4hPa West 2.9mph /  4.7km/h 7mph /  11.3km/h 73% 0in /  0.0mm 44 W/m2
18:33 55.4 °F /  13 °C 46.9 °F /  8.3 °C 30.2in /  1022.4hPa West 2mph /  3.2km/h 7mph /  11.3km/h 73% 0in /  0.0mm 54 W/m2
18:38 55.4 °F /  13 °C 46.9 °F /  8.3 °C 30.2in /  1022.4hPa West 0.9mph /  1.4km/h 4mph /  6.4km/h 73% 0in /  0.0mm 49 W/m2
18:43 55.4 °F /  13 °C 47.3 °F /  8.5 °C 30.2in /  1022.4hPa WNW 2mph /  3.2km/h 8mph /  12.9km/h 74% 0in /  0.0mm 46 W/m2
18:48 55.6 °F /  13.1 °C 47.1 °F /  8.4 °C 30.2in /  1022.4hPa WSW 2mph /  3.2km/h 11mph /  17.7km/h 73% 0in /  0.0mm 28 W/m2
18:53 55.6 °F /  13.1 °C 46.8 °F /  8.2 °C 30.2in /  1022.7hPa West 4mph /  6.4km/h 9mph /  14.5km/h 72% 0in /  0.0mm 16 W/m2
18:58 55.4 °F /  13 °C 46.6 °F /  8.1 °C 30.2in /  1022.7hPa WSW 4.9mph /  7.9km/h 11mph /  17.7km/h 72% 0in /  0.0mm 14 W/m2
19:03 55 °F /  12.8 °C 45.5 °F /  7.5 °C 30.2in /  1022.7hPa West 8.1mph /  13km/h 10mph /  16.1km/h 70% 0in /  0.0mm 11 W/m2
19:08 54.9 °F /  12.7 °C 45 °F /  7.2 °C 30.2in /  1022.7hPa West 6.9mph /  11.1km/h 10mph /  16.1km/h 69% 0in /  0.0mm 11 W/m2
19:13 54.7 °F /  12.6 °C 44.2 °F /  6.8 °C 30.2in /  1023.0hPa NNW 8.9mph /  14.3km/h 9mph /  14.5km/h 68% 0in /  0.0mm 7 W/m2
19:18 54.3 °F /  12.4 °C 44.1 °F /  6.7 °C 30.2in /  1023.0hPa WNW 8.1mph /  13km/h 9mph /  14.5km/h 68% 0in /  0.0mm 5 W/m2
19:23 54.1 °F /  12.3 °C 43.9 °F /  6.6 °C 30.2in /  1023.4hPa West 10.1mph /  16.3km/h 10mph /  16.1km/h 68% 0in /  0.0mm 0 W/m2
19:28 54 °F /  12.2 °C 43.7 °F /  6.5 °C 30.2in /  1023.4hPa WSW 8.1mph /  13km/h 9mph /  14.5km/h 68% 0in /  0.0mm 0 W/m2
19:33 53.8 °F /  12.1 °C 43.9 °F /  6.6 °C 30.2in /  1023.4hPa WNW 4mph /  6.4km/h 10mph /  16.1km/h 69% 0in /  0.0mm 0 W/m2
19:38 53.4 °F /  11.9 °C 43.5 °F /  6.4 °C 30.2in /  1023.4hPa West 2.9mph /  4.7km/h 10mph /  16.1km/h 69% 0in /  0.0mm 0 W/m2
19:43 53.2 °F /  11.8 °C 43.7 °F /  6.5 °C 30.2in /  1023.4hPa West 2.9mph /  4.7km/h 8mph /  12.9km/h 70% 0in /  0.0mm 0 W/m2
19:48 53.1 °F /  11.7 °C 43.5 °F /  6.4 °C 30.2in /  1023.4hPa WNW 6.9mph /  11.1km/h 8mph /  12.9km/h 70% 0in /  0.0mm 0 W/m2
19:53 52.9 °F /  11.6 °C 43.7 °F /  6.5 °C 30.2in /  1023.7hPa West 4mph /  6.4km/h 9mph /  14.5km/h 71% 0in /  0.0mm 0 W/m2
19:58 52.5 °F /  11.4 °C 43.7 °F /  6.5 °C 30.2in /  1023.7hPa WNW 6.9mph /  11.1km/h 10mph /  16.1km/h 72% 0in /  0.0mm 0 W/m2
20:03 52.5 °F /  11.4 °C 44.1 °F /  6.7 °C 30.2in /  1023.7hPa WSW 4mph /  6.4km/h 8mph /  12.9km/h 73% 0in /  0.0mm 0 W/m2
20:08 52.3 °F /  11.3 °C 43.9 °F /  6.6 °C 30.2in /  1023.7hPa West 6mph /  9.7km/h 10mph /  16.1km/h 73% 0in /  0.0mm 0 W/m2
20:13 52.2 °F /  11.2 °C 44.1 °F /  6.7 °C 30.2in /  1023.7hPa West 2.9mph /  4.7km/h 6mph /  9.7km/h 74% 0in /  0.0mm 0 W/m2
20:18 52 °F /  11.1 °C 44.2 °F /  6.8 °C 30.2in /  1024.0hPa WNW 2.9mph /  4.7km/h 11mph /  17.7km/h 75% 0in /  0.0mm 0 W/m2
20:23 51.8 °F /  11 °C 44.4 °F /  6.9 °C 30.2in /  1024.0hPa NW 4mph /  6.4km/h 7mph /  11.3km/h 76% 0in /  0.0mm 0 W/m2
20:28 51.4 °F /  10.8 °C 44.1 °F /  6.7 °C 30.2in /  1024.0hPa NW 2.9mph /  4.7km/h 11mph /  17.7km/h 76% 0in /  0.0mm 0 W/m2
20:33 51.4 °F /  10.8 °C 44.4 °F /  6.9 °C 30.2in /  1024.0hPa SW 6mph /  9.7km/h 7mph /  11.3km/h 77% 0in /  0.0mm 0 W/m2
20:38 51.1 °F /  10.6 °C 44.4 °F /  6.9 °C 30.2in /  1024.0hPa WSW 4mph /  6.4km/h 9mph /  14.5km/h 78% 0in /  0.0mm 0 W/m2
20:44 50.9 °F /  10.5 °C 44.6 °F /  7 °C 30.2in /  1024.0hPa WNW 4.9mph /  7.9km/h 5mph /  8km/h 79% 0in /  0.0mm 0 W/m2
20:49 50.7 °F /  10.4 °C 44.8 °F /  7.1 °C 30.3in /  1024.4hPa WNW 2mph /  3.2km/h 8mph /  12.9km/h 80% 0in /  0.0mm 0 W/m2
20:54 50.5 °F /  10.3 °C 45 °F /  7.2 °C 30.3in /  1024.4hPa West 6mph /  9.7km/h 6mph /  9.7km/h 81% 0in /  0.0mm 0 W/m2
20:59 50.4 °F /  10.2 °C 44.8 °F /  7.1 °C 30.3in /  1024.4hPa West 6mph /  9.7km/h 9mph /  14.5km/h 81% 0in /  0.0mm 0 W/m2
21:04 50.4 °F /  10.2 °C 45.1 °F /  7.3 °C 30.3in /  1024.7hPa SW 2mph /  3.2km/h 9mph /  14.5km/h 82% 0in /  0.0mm 0 W/m2
21:09 50.2 °F /  10.1 °C 45 °F /  7.2 °C 30.3in /  1024.7hPa SW 2.9mph /  4.7km/h 7mph /  11.3km/h 82% 0in /  0.0mm 0 W/m2
21:14 49.8 °F /  9.9 °C 44.8 °F /  7.1 °C 30.3in /  1024.7hPa West 4mph /  6.4km/h 7mph /  11.3km/h 83% 0in /  0.0mm 0 W/m2
21:19 49.8 °F /  9.9 °C 44.8 °F /  7.1 °C 30.3in /  1024.7hPa West 2mph /  3.2km/h 4mph /  6.4km/h 83% 0in /  0.0mm 0 W/m2
21:24 49.8 °F /  9.9 °C 44.8 °F /  7.1 °C 30.3in /  1024.7hPa West 6mph /  9.7km/h 11mph /  17.7km/h 83% 0in /  0.0mm 0 W/m2
21:29 49.8 °F /  9.9 °C 44.8 °F /  7.1 °C 30.3in /  1025.1hPa WSW 2mph /  3.2km/h 9mph /  14.5km/h 83% 0in /  0.0mm 0 W/m2
21:34 49.8 °F /  9.9 °C 44.8 °F /  7.1 °C 30.3in /  1025.1hPa WSW 2mph /  3.2km/h 11mph /  17.7km/h 83% 0in /  0.0mm 0 W/m2
21:39 49.8 °F /  9.9 °C 45.1 °F /  7.3 °C 30.3in /  1025.1hPa West 4mph /  6.4km/h 9mph /  14.5km/h 84% 0in /  0.0mm 0 W/m2
21:44 49.8 °F /  9.9 °C 45.1 °F /  7.3 °C 30.3in /  1025.1hPa NW 2mph /  3.2km/h 8mph /  12.9km/h 84% 0in /  0.0mm 0 W/m2
21:49 49.8 °F /  9.9 °C 45.1 °F /  7.3 °C 30.3in /  1025.1hPa WSW 4mph /  6.4km/h 9mph /  14.5km/h 84% 0in /  0.0mm 0 W/m2
21:54 49.8 °F /  9.9 °C 45.1 °F /  7.3 °C 30.3in /  1025.1hPa NW 4mph /  6.4km/h 7mph /  11.3km/h 84% 0in /  0.0mm 0 W/m2
21:59 49.6 °F /  9.8 °C 45.3 °F /  7.4 °C 30.3in /  1025.1hPa West 4mph /  6.4km/h 8mph /  12.9km/h 85% 0in /  0.0mm 0 W/m2
22:04 49.6 °F /  9.8 °C 45.3 °F /  7.4 °C 30.3in /  1025.4hPa West 2.9mph /  4.7km/h 9mph /  14.5km/h 85% 0in /  0.0mm 0 W/m2
22:09 49.6 °F /  9.8 °C 45.3 °F /  7.4 °C 30.3in /  1025.4hPa NW 2mph /  3.2km/h 6mph /  9.7km/h 85% 0in /  0.0mm 0 W/m2
22:14 49.5 °F /  9.7 °C 45.5 °F /  7.5 °C 30.3in /  1025.4hPa West 6mph /  9.7km/h 8mph /  12.9km/h 86% 0in /  0.0mm 0 W/m2
22:19 49.5 °F /  9.7 °C 45.5 °F /  7.5 °C 30.3in /  1025.4hPa West 10.1mph /  16.3km/h 10mph /  16.1km/h 86% 0in /  0.0mm 0 W/m2
22:24 49.5 °F /  9.7 °C 45.5 °F /  7.5 °C 30.3in /  1025.4hPa WNW 2.9mph /  4.7km/h 8mph /  12.9km/h 86% 0in /  0.0mm 0 W/m2
22:29 49.5 °F /  9.7 °C 45.5 °F /  7.5 °C 30.3in /  1025.7hPa WSW 4.9mph /  7.9km/h 11mph /  17.7km/h 86% 0in /  0.0mm 0 W/m2
22:34 49.5 °F /  9.7 °C 45.5 °F /  7.5 °C 30.3in /  1025.7hPa WNW 2.9mph /  4.7km/h 5mph /  8km/h 86% 0in /  0.0mm 0 W/m2
22:39 49.3 °F /  9.6 °C 45.3 °F /  7.4 °C 30.3in /  1025.7hPa SW 2.9mph /  4.7km/h 11mph /  17.7km/h 86% 0in /  0.0mm 0 W/m2
22:44 49.3 °F /  9.6 °C 45.3 °F /  7.4 °C 30.3in /  1025.7hPa WNW 2.9mph /  4.7km/h 7mph /  11.3km/h 86% 0in /  0.0mm 0 W/m2
22:49 49.3 °F /  9.6 °C 45.5 °F /  7.5 °C 30.3in /  1026.1hPa WNW 6mph /  9.7km/h 9mph /  14.5km/h 87% 0in /  0.0mm 0 W/m2
22:54 49.1 °F /  9.5 °C 45.3 °F /  7.4 °C 30.3in /  1026.1hPa West 4mph /  6.4km/h 10mph /  16.1km/h 87% 0in /  0.0mm 0 W/m2
22:59 49.1 °F /  9.5 °C 45.3 °F /  7.4 °C 30.3in /  1026.1hPa West 2mph /  3.2km/h 6mph /  9.7km/h 87% 0in /  0.0mm 0 W/m2
23:04 48.9 °F /  9.4 °C 45.1 °F /  7.3 °C 30.3in /  1026.1hPa WSW 2.9mph /  4.7km/h 10mph /  16.1km/h 87% 0in /  0.0mm 0 W/m2
23:09 48.9 °F /  9.4 °C 45.1 °F /  7.3 °C 30.3in /  1026.1hPa WNW 4mph /  6.4km/h 4mph /  6.4km/h 87% 0in /  0.0mm 0 W/m2
23:14 48.7 °F /  9.3 °C 45 °F /  7.2 °C 30.3in /  1026.1hPa WNW 2.9mph /  4.7km/h 7mph /  11.3km/h 87% 0in /  0.0mm 0 W/m2
23:19 48.7 °F /  9.3 °C 45.3 °F /  7.4 °C 30.3in /  1026.1hPa WNW 2.9mph /  4.7km/h 3mph /  4.8km/h 88% 0in /  0.0mm 0 W/m2
23:24 48.6 °F /  9.2 °C 45.1 °F /  7.3 °C 30.3in /  1026.4hPa West 6mph /  9.7km/h 8mph /  12.9km/h 88% 0in /  0.0mm 0 W/m2
23:29 48.6 °F /  9.2 °C 45.1 °F /  7.3 °C 30.3in /  1026.4hPa NW 2mph /  3.2km/h 5mph /  8km/h 88% 0in /  0.0mm 0 W/m2
23:34 48.4 °F /  9.1 °C 45 °F /  7.2 °C 30.3in /  1026.4hPa West 2mph /  3.2km/h 8mph /  12.9km/h 88% 0in /  0.0mm 0 W/m2
23:39 48.4 °F /  9.1 °C 45 °F /  7.2 °C 30.3in /  1026.4hPa WNW 2.9mph /  4.7km/h 9mph /  14.5km/h 88% 0in /  0.0mm 0 W/m2
23:44 48.4 °F /  9.1 °C 45.3 °F /  7.4 °C 30.3in /  1026.4hPa West 2.9mph /  4.7km/h 4mph /  6.4km/h 89% 0in /  0.0mm 0 W/m2
23:49 48 °F /  8.9 °C 44.6 °F /  7 °C 30.3in /  1026.4hPa SSW 4.9mph /  7.9km/h 9mph /  14.5km/h 88% 0in /  0.0mm 0 W/m2
23:54 48 °F /  8.9 °C 45 °F /  7.2 °C 30.3in /  1026.4hPa WNW 2.9mph /  4.7km/h 10mph /  16.1km/h 89% 0in /  0.0mm 0 W/m2
23:59 47.8 °F /  8.8 °C 44.8 °F /  7.1 °C 30.3in /  1026.8hPa WNW 2mph /  3.2km/h 7mph /  11.3km/h 89% 0in /  0.0mm 0 W/m2
Juneau County Weather
Compliments of Weather Underground - 4 mb